createdAt,value
2022-10-05T00:01:21.094Z,4.17
2022-10-05T00:06:31.264Z,4.16
2022-10-05T00:11:45.552Z,4.15
2022-10-05T00:17:01.627Z,4.15
2022-10-05T00:22:19.165Z,4.13
2022-10-05T00:27:36.443Z,4.13
2022-10-05T00:32:59.603Z,4.2
2022-10-05T00:38:13.238Z,4.2
2022-10-05T00:43:30.844Z,4.18
2022-10-05T00:48:47.155Z,4.18
2022-10-05T00:54:03.000Z,4.17
2022-10-05T00:58:30.764Z,4.17
2022-10-05T01:04:37.400Z,4.17
2022-10-05T01:09:54.185Z,4.17
2022-10-05T01:20:27.171Z,4.17
2022-10-05T01:25:43.167Z,4.2
2022-10-05T01:30:59.479Z,4.2
2022-10-05T01:36:15.494Z,4.19
2022-10-05T01:41:30.992Z,4.19
2022-10-05T01:46:47.357Z,4.2
2022-10-05T01:52:04.598Z,4.2
2022-10-05T01:56:31.566Z,4.21
2022-10-05T02:01:17.564Z,4.21
2022-10-05T02:06:26.121Z,4.25
2022-10-05T02:11:33.946Z,4.25
2022-10-05T02:16:44.795Z,4.19
2022-10-05T02:21:53.463Z,4.19
2022-10-05T02:27:02.586Z,4.18
2022-10-05T02:32:13.621Z,4.17
2022-10-05T02:37:22.737Z,4.17
2022-10-05T02:42:32.493Z,4.17
2022-10-05T02:47:42.893Z,4.17
2022-10-05T02:52:52.653Z,4.15
2022-10-05T02:58:03.724Z,4.15
2022-10-05T03:03:10.945Z,4.18
2022-10-05T03:08:20.651Z,4.18
2022-10-05T03:13:29.142Z,4.23
2022-10-05T03:18:38.253Z,4.23
2022-10-05T03:23:53.124Z,4.19
2022-10-05T03:29:07.975Z,4.19
2022-10-05T03:34:24.138Z,4.23
2022-10-05T03:39:40.331Z,4.23
2022-10-05T03:44:55.174Z,4.22
2022-10-05T03:50:10.726Z,4.22
2022-10-05T03:55:26.902Z,4.2
2022-10-05T04:00:43.021Z,4.2
2022-10-05T04:05:57.900Z,4.2
2022-10-05T04:10:10.140Z,4.2
2022-10-05T04:15:23.664Z,4.16
2022-10-05T04:20:30.899Z,4.16
2022-10-05T04:25:40.025Z,4.19
2022-10-05T04:30:50.422Z,4.19
2022-10-05T04:35:58.955Z,4.18
2022-10-05T04:41:09.331Z,4.18
2022-10-05T04:46:20.030Z,4.12
2022-10-05T04:51:29.462Z,4.12
2022-10-05T04:56:38.594Z,4.2
2022-10-05T05:01:47.061Z,4.2
2022-10-05T05:06:56.259Z,4.15
2022-10-05T05:12:05.299Z,4.15
2022-10-05T05:17:15.701Z,4.22
2022-10-05T05:22:25.457Z,4.22
2022-10-05T05:27:37.789Z,4.22
2022-10-05T05:32:46.904Z,4.19
2022-10-05T05:37:55.391Z,4.19
2022-10-05T05:43:03.857Z,4.21
2022-10-05T05:48:24.026Z,4.21
2022-10-05T05:53:32.999Z,4.18
2022-10-05T05:58:49.095Z,4.18
2022-10-05T06:04:06.096Z,4.2
2022-10-05T06:09:23.958Z,4.2
2022-10-05T06:14:40.130Z,4.17
2022-10-05T06:20:00.000Z,4.17
2022-10-05T06:25:13.888Z,4.18
2022-10-05T06:30:30.925Z,4.18
2022-10-05T06:34:59.883Z,4.22
2022-10-05T06:39:46.740Z,4.22
2022-10-05T06:44:56.504Z,4.18
2022-10-05T06:50:05.628Z,4.18
2022-10-05T06:55:14.604Z,4.18
2022-10-05T07:00:26.173Z,4.18
2022-10-05T07:05:35.556Z,4.17
2022-10-05T07:10:44.664Z,4.17
2022-10-05T07:15:57.063Z,4.19
2022-10-05T07:21:06.091Z,4.19
2022-10-05T07:26:21.648Z,4.2
2022-10-05T07:31:36.541Z,4.2
2022-10-05T07:36:54.722Z,4.19
2022-10-05T07:42:06.252Z,4.19
2022-10-05T07:47:21.233Z,4.15
2022-10-05T07:52:37.255Z,4.15
2022-10-05T07:57:52.807Z,4.13
2022-10-05T08:03:07.852Z,4.13
2022-10-05T08:08:03.824Z,4.15
2022-10-05T08:13:40.660Z,4.15
2022-10-05T08:18:56.783Z,4.18
2022-10-05T08:23:22.945Z,4.18
2022-10-05T08:28:03.720Z,4.14
2022-10-05T08:34:43.349Z,4.14
2022-10-05T08:39:10.132Z,4.17
2022-10-05T08:43:51.864Z,4.16
2022-10-05T08:49:01.655Z,4.16
2022-10-05T08:54:10.097Z,4.17
2022-10-05T08:59:19.855Z,4.17
2022-10-05T09:04:28.382Z,4.16
2022-10-05T09:10:52.714Z,4.16
2022-10-05T09:16:09.333Z,4.2
2022-10-05T09:21:26.786Z,4.2
2022-10-05T09:26:43.060Z,4.2
2022-10-05T09:31:59.158Z,4.2
2022-10-05T09:36:26.495Z,4.18
2022-10-05T09:40:55.163Z,4.18
2022-10-05T09:46:11.390Z,4.2
2022-10-05T09:51:27.575Z,4.2
2022-10-05T10:02:23.369Z,4.22
2022-10-05T10:07:21.087Z,4.23
2022-10-05T10:12:38.514Z,4.23
2022-10-05T10:17:54.833Z,4.2
2022-10-05T10:22:20.860Z,4.2
2022-10-05T10:27:01.293Z,4.21
2022-10-05T10:32:11.051Z,4.21
2022-10-05T10:37:20.184Z,4.21
2022-10-05T10:42:29.948Z,4.21
2022-10-05T10:47:39.692Z,4.19
2022-10-05T10:52:47.549Z,4.19
2022-10-05T10:57:57.299Z,4.21
2022-10-05T11:03:08.874Z,4.21
2022-10-05T11:08:17.496Z,4.22
2022-10-05T11:13:30.459Z,4.22
2022-10-05T11:18:59.311Z,4.19
2022-10-05T11:24:07.870Z,4.21
2022-10-05T11:29:17.651Z,4.21
2022-10-05T11:34:29.964Z,4.21
2022-10-05T11:39:39.710Z,4.21
2022-10-05T11:44:48.172Z,4.23
2022-10-05T11:50:03.143Z,4.23
2022-10-05T11:55:12.658Z,4.26
2022-10-05T12:00:19.392Z,4.26
2022-10-05T12:05:29.165Z,4.22
2022-10-05T12:10:38.918Z,4.22
2022-10-05T12:15:51.989Z,4.26
2022-10-05T12:21:08.956Z,4.26
2022-10-05T12:26:26.351Z,4.22
2022-10-05T12:31:43.214Z,4.22
2022-10-05T12:37:05.669Z,4.2
2022-10-05T12:52:46.385Z,4.29
2022-10-05T13:13:49.099Z,4.3
2022-10-05T13:19:04.708Z,4.25
2022-10-05T13:45:21.571Z,4.24
2022-10-05T13:55:53.259Z,4.27
2022-10-05T14:01:08.140Z,4.27
2022-10-05T14:06:24.357Z,4.27
2022-10-05T14:10:49.171Z,4.27
2022-10-05T14:16:04.870Z,4.27
2022-10-05T14:20:29.600Z,4.28
2022-10-05T14:26:04.377Z,4.28
2022-10-05T14:30:59.466Z,4.28
2022-10-05T14:36:15.499Z,4.3
2022-10-05T14:41:31.042Z,4.3
2022-10-05T14:45:57.315Z,4.26
2022-10-05T14:50:40.853Z,4.26
2022-10-05T14:55:54.351Z,4.29
2022-10-05T15:01:03.168Z,4.29
2022-10-05T15:06:15.398Z,4.27
2022-10-05T15:11:23.714Z,4.27
2022-10-05T15:16:33.032Z,4.24
2022-10-05T15:21:42.621Z,4.24
2022-10-05T15:26:52.992Z,4.25
2022-10-05T15:32:01.492Z,4.25
2022-10-05T15:37:09.941Z,4.31
2022-10-05T15:42:20.331Z,4.31
2022-10-05T15:47:28.818Z,4.25
2022-10-05T15:52:38.581Z,4.25
2022-10-05T15:57:50.284Z,4.23
2022-10-05T16:02:58.739Z,4.23
2022-10-05T16:08:11.066Z,4.22
2022-10-05T16:13:24.656Z,4.22
2022-10-05T16:18:34.531Z,4.22
2022-10-05T16:23:43.536Z,4.22
2022-10-05T16:28:53.965Z,4.21
2022-10-05T16:34:03.693Z,4.21
2022-10-05T16:39:14.751Z,4.26
2022-10-05T16:44:23.211Z,4.26
2022-10-05T16:49:33.005Z,4.27
2022-10-05T16:54:48.430Z,4.27
2022-10-05T16:59:57.083Z,4.23
2022-10-05T17:05:13.289Z,4.23
2022-10-05T17:10:28.784Z,4.25
2022-10-05T17:15:44.999Z,4.25
2022-10-05T17:20:59.818Z,4.26
2022-10-05T17:26:14.730Z,4.26
2022-10-05T17:31:29.672Z,4.26
2022-10-05T17:36:45.150Z,4.24
2022-10-05T17:42:00.618Z,4.24
2022-10-05T17:47:17.455Z,4.23
2022-10-05T17:52:34.841Z,4.23
2022-10-05T17:57:50.838Z,4.28
2022-10-05T18:02:17.269Z,4.28
2022-10-05T18:06:58.093Z,4.23
2022-10-05T18:12:07.219Z,4.23
2022-10-05T18:17:16.984Z,4.22
2022-10-05T18:22:26.741Z,4.22
2022-10-05T18:27:37.748Z,4.2
2022-10-05T18:32:53.972Z,4.2
2022-10-05T18:38:08.815Z,4.23
2022-10-05T18:43:24.942Z,4.23
2022-10-05T18:48:39.817Z,4.24
2022-10-05T18:53:56.024Z,4.24
2022-10-05T18:59:12.138Z,4.22
2022-10-05T19:04:26.375Z,4.22
2022-10-05T19:09:42.570Z,4.21
2022-10-05T19:14:58.052Z,4.21
2022-10-05T19:20:14.226Z,4.19
2022-10-05T19:25:29.100Z,4.19
2022-10-05T19:29:24.664Z,4.19
2022-10-05T19:34:33.775Z,4.19
2022-10-05T19:39:42.898Z,4.17
2022-10-05T19:44:52.678Z,4.17
2022-10-05T19:50:01.139Z,4.15
2022-10-05T19:55:15.401Z,4.15
2022-10-05T20:00:23.868Z,4.17
2022-10-05T20:05:32.449Z,4.17
2022-10-05T20:10:41.449Z,4.18
2022-10-05T20:15:51.724Z,4.18
2022-10-05T20:21:00.980Z,4.15
2022-10-05T20:26:10.741Z,4.15
2022-10-05T20:31:20.959Z,4.2
2022-10-05T20:36:48.186Z,4.18
2022-10-05T20:41:57.390Z,4.18
2022-10-05T20:47:08.051Z,4.2
2022-10-05T20:52:20.126Z,4.2
2022-10-05T20:57:37.563Z,4.18
2022-10-05T21:02:54.295Z,4.18
2022-10-05T21:08:11.643Z,4.23
2022-10-05T21:13:28.442Z,4.23
2022-10-05T21:18:45.882Z,4.19
2022-10-05T21:24:02.205Z,4.19
2022-10-05T21:29:18.283Z,4.21
2022-10-05T21:34:35.641Z,4.21
2022-10-05T21:39:02.606Z,4.19
2022-10-05T21:44:20.523Z,4.19
2022-10-05T21:49:00.335Z,4.2
2022-10-05T21:54:08.819Z,4.2
2022-10-05T21:59:17.287Z,4.23
2022-10-05T22:04:26.432Z,4.23
2022-10-05T22:09:34.904Z,4.21
2022-10-05T22:14:43.379Z,4.21
2022-10-05T22:19:53.145Z,4.22
2022-10-05T22:25:02.248Z,4.22
2022-10-05T22:30:11.398Z,4.22
2022-10-05T22:35:20.494Z,4.22
2022-10-05T22:40:29.624Z,4.15
2022-10-05T22:45:38.441Z,4.15
2022-10-05T22:50:45.987Z,4.15
2022-10-05T22:55:54.423Z,4.15
2022-10-05T23:01:04.208Z,4.09
2022-10-05T23:06:20.326Z,4.09
2022-10-05T23:11:35.818Z,4.1
2022-10-05T23:16:50.805Z,4.1
2022-10-05T23:22:06.222Z,4.07
2022-10-05T23:27:21.094Z,4.07
2022-10-05T23:32:36.728Z,4.12
2022-10-05T23:37:51.497Z,4.05
2022-10-05T23:43:09.083Z,4.05
2022-10-05T23:48:27.148Z,4.07
2022-10-05T23:53:43.965Z,4.07
2022-10-05T23:59:00.760Z,4.02
